Kalbarri Airport


Codes: YKBR/KAX
Name: Kalbarri Airport
City:
Country: Australia
Elevation: 157 ft.
Wikipedia:

Photos at Kalbarri Airport


   Photos courtesy of SpottingLog. You can add your own sightings and photos by signing up for a free trial today.



No photos found.

Weather at Kalbarri Airport


Time (UTC)DescriptionTempratureWindCloud coverageVisibilityPressureHumidity
19-Apr-2024 06:00Clear Sky30°C11 mph, E0%10000m1020hPa14%
19-Apr-2024 09:00Clear Sky30°C4 mph, E0%10000m1019hPa16%
19-Apr-2024 12:00Clear Sky23°C9 mph, E0%10000m1020hPa20%
19-Apr-2024 15:00Clear Sky21°C11 mph, E0%10000m1020hPa22%
19-Apr-2024 18:00Clear Sky20°C13 mph, E0%10000m1020hPa23%
19-Apr-2024 21:00Clear Sky19°C16 mph, E0%10000m1020hPa25%
20-Apr-2024 00:00Clear Sky22°C18 mph, E0%10000m1021hPa23%
20-Apr-2024 03:00Clear Sky31°C16 mph, NE0%10000m1020hPa14%
20-Apr-2024 06:00Clear Sky33°C4 mph, NE0%10000m1018hPa12%
20-Apr-2024 09:00Clear Sky29°C13 mph, SW0%10000m1019hPa19%
20-Apr-2024 12:00Clear Sky23°C13 mph, SE0%10000m1020hPa27%
20-Apr-2024 15:00Clear Sky21°C11 mph, E1%10000m1020hPa21%
20-Apr-2024 18:00Clear Sky20°C13 mph, E1%10000m1020hPa19%
20-Apr-2024 21:00Clear Sky19°C13 mph, E0%10000m1019hPa21%
21-Apr-2024 00:00Clear Sky22°C13 mph, E0%10000m1020hPa22%
21-Apr-2024 03:00Clear Sky31°C13 mph, NE0%10000m1020hPa13%
21-Apr-2024 06:00Clear Sky32°C9 mph, W0%10000m1017hPa14%
21-Apr-2024 09:00Clear Sky28°C13 mph, SW0%10000m1018hPa23%
21-Apr-2024 12:00Clear Sky19°C9 mph, S0%10000m1019hPa51%
21-Apr-2024 15:00Clear Sky19°C9 mph, SE0%10000m1019hPa50%
21-Apr-2024 18:00Clear Sky18°C9 mph, SE0%10000m1019hPa40%
21-Apr-2024 21:00Clear Sky17°C9 mph, SE1%10000m1019hPa39%
22-Apr-2024 00:00Few Clouds20°C16 mph, SE14%10000m1021hPa35%
22-Apr-2024 03:00Scattered Clouds28°C18 mph, SE35%10000m1019hPa20%
22-Apr-2024 06:00Scattered Clouds30°C18 mph, S31%10000m1017hPa21%
22-Apr-2024 09:00Scattered Clouds24°C25 mph, S36%10000m1018hPa48%
22-Apr-2024 12:00Scattered Clouds19°C22 mph, S25%10000m1020hPa80%
22-Apr-2024 15:00Overcast Clouds22°C22 mph, SE100%10000m1019hPa39%
22-Apr-2024 18:00Overcast Clouds18°C29 mph, E100%10000m1020hPa58%
22-Apr-2024 21:00Overcast Clouds17°C29 mph, E100%10000m1020hPa60%
23-Apr-2024 00:00Overcast Clouds17°C29 mph, E100%10000m1021hPa56%
23-Apr-2024 03:00Overcast Clouds23°C27 mph, E100%10000m1021hPa34%
23-Apr-2024 06:00Overcast Clouds27°C22 mph, E100%10000m1019hPa25%
23-Apr-2024 09:00Overcast Clouds26°C18 mph, E100%10000m1019hPa25%
23-Apr-2024 12:00Overcast Clouds22°C20 mph, E100%10000m1021hPa31%
23-Apr-2024 15:00Overcast Clouds20°C22 mph, E86%10000m1021hPa34%
23-Apr-2024 18:00Broken Clouds18°C25 mph, E77%10000m1020hPa39%
23-Apr-2024 21:00Broken Clouds16°C25 mph, E63%10000m1020hPa41%
24-Apr-2024 00:00Broken Clouds17°C25 mph, E51%10000m1022hPa37%
24-Apr-2024 03:00Few Clouds25°C25 mph, E14%10000m1021hPa25%